N25034 RJFK-RJFK

Flight info

Callsign N25034
Flight time 0h 9m
Altitude 3000
Route VFR
Aircraft C152/L-SDFGRY/C

Departure

Time 2026-05-04 11:13
Airport Kagoshima Airport (RJFK)

Arrival

Time 2026-05-04 11:22
Airport Kagoshima Airport (RJFK)
Time Latitude Longitude Altitude Speed Heading
2026-05-04 11:05 31.79732 130.72124 879 ft 10 kts 147°
2026-05-04 11:06 31.79666 130.72171 877 ft 12 kts 148°
2026-05-04 11:06 31.79584 130.72224 874 ft 14 kts 151°
2026-05-04 11:06 31.79496 130.72288 869 ft 11 kts 144°
2026-05-04 11:06 31.79499 130.72369 867 ft 6 kts 59°
2026-05-04 11:08 31.79513 130.72401 867 ft 0 kts 56°
2026-05-04 11:10 31.79514 130.72401 867 ft 0 kts 54°
2026-05-04 11:12 31.79567 130.72463 866 ft 3 kts 333°
2026-05-04 11:12 31.79633 130.72420 868 ft 31 kts 328°
2026-05-04 11:12 31.79948 130.72208 879 ft 68 kts 326°
2026-05-04 11:12 31.80365 130.71927 1036 ft 67 kts 326°
2026-05-04 11:13 31.80759 130.71663 1206 ft 63 kts 325°
2026-05-04 11:13 31.81143 130.71393 1348 ft 64 kts 324°
2026-05-04 11:13 31.81523 130.71118 1488 ft 64 kts 327°
2026-05-04 11:13 31.81895 130.70863 1645 ft 61 kts 328°
2026-05-04 11:14 31.82256 130.70642 1792 ft 59 kts 332°
2026-05-04 11:14 31.82658 130.70489 1914 ft 67 kts 358°
2026-05-04 11:14 31.82990 130.70834 2062 ft 71 kts 57°
2026-05-04 11:16 31.81736 130.74185 2164 ft 88 kts 147°
2026-05-04 11:16 31.81233 130.74562 2072 ft 88 kts 148°
2026-05-04 11:16 31.80726 130.74896 2039 ft 85 kts 149°
2026-05-04 11:17 31.80221 130.75226 1988 ft 85 kts 148°
2026-05-04 11:17 31.79666 130.75584 1965 ft 86 kts 154°
2026-05-04 11:19 31.76097 130.77219 2165 ft 77 kts 240°
2026-05-04 11:19 31.75814 130.76654 2102 ft 82 kts 252°
2026-05-04 11:19 31.75681 130.76119 2153 ft 61 kts 274°
2026-05-04 11:19 31.75756 130.75609 2028 ft 65 kts 298°
2026-05-04 11:20 31.75963 130.75131 1845 ft 64 kts 311°
2026-05-04 11:20 31.76252 130.74760 1708 ft 58 kts 324°
2026-05-04 11:20 31.76594 130.74495 1596 ft 61 kts 328°
2026-05-04 11:20 31.76963 130.74231 1460 ft 62 kts 328°
2026-05-04 11:22 31.79680 130.72385 870 ft 50 kts 326°
2026-05-04 11:22 31.79929 130.72214 879 ft 43 kts 327°
2026-05-04 11:23 31.80290 130.71973 939 ft 65 kts 329°
2026-05-04 11:23 31.80688 130.71730 1119 ft 62 kts 328°
2026-05-04 11:24 31.83042 130.70651 2010 ft 74 kts 34°
2026-05-04 11:25 31.83238 130.71254 2106 ft 84 kts 71°
2026-05-04 11:25 31.83383 130.71925 2211 ft 85 kts 66°
2026-05-04 11:25 31.83537 130.72627 2272 ft 90 kts 71°
2026-05-04 11:26 31.83000 130.73833 2441 ft 96 kts 154°
2026-05-04 11:27 31.78675 130.76723 2434 ft 103 kts 157°
2026-05-04 11:28 31.78031 130.77081 2307 ft 99 kts 156°
2026-05-04 11:28 31.77414 130.77418 2181 ft 97 kts 159°
2026-05-04 11:28 31.76778 130.77728 1981 ft 96 kts 166°
2026-05-04 11:28 31.76147 130.77643 1836 ft 88 kts 217°
2026-05-04 11:29 31.75839 130.77153 1842 ft 72 kts 259°
2026-05-04 11:29 31.75779 130.76588 1764 ft 69 kts 269°
2026-05-04 11:29 31.75830 130.76062 1656 ft 65 kts 304°
2026-05-04 11:29 31.76056 130.75636 1595 ft 60 kts 304°
2026-05-04 11:31 31.78103 130.73485 1149 ft 60 kts 324°
2026-05-04 11:33 31.80026 130.72099 883 ft 3 kts 255°
2026-05-04 11:33 31.80018 130.72081 883 ft 1 kts 240°
2026-05-04 11:33 31.80001 130.72046 883 ft 7 kts 240°
2026-05-04 11:34 31.80000 130.72044 883 ft 0 kts 240°
2026-05-04 11:34 31.79963 130.71999 884 ft 11 kts 205°
2026-05-04 11:34 31.79890 130.72018 883 ft 11 kts 149°
2026-05-04 11:34 31.79806 130.72075 881 ft 14 kts 153°
2026-05-04 11:35 31.79755 130.72080 881 ft 5 kts 246°
2026-05-04 11:35 31.79745 130.72051 882 ft 2 kts 242°
2026-05-04 11:35 31.79740 130.72038 882 ft 0 kts 240°
2026-05-04 11:35 31.79739 130.72037 882 ft 0 kts 242°